createdAt,value
2019-03-18T00:00:19.553Z,1.00
2019-03-18T00:02:48.143Z,1.10
2019-03-18T00:05:16.652Z,1.15
2019-03-18T00:07:45.071Z,0.98
2019-03-18T00:10:13.909Z,1.20
2019-03-18T00:12:42.328Z,1.00
2019-03-18T00:15:10.923Z,1.22
2019-03-18T00:17:39.342Z,1.30
2019-03-18T00:20:09.791Z,1.17
2019-03-18T00:22:38.276Z,1.02
2019-03-18T00:25:12.039Z,1.50
2019-03-18T00:27:40.529Z,1.10
2019-03-18T00:30:16.890Z,1.22
2019-03-18T00:32:45.371Z,1.10
2019-03-18T00:35:14.078Z,1.47
2019-03-18T00:37:42.666Z,1.30
2019-03-18T00:40:16.458Z,1.40
2019-03-18T00:42:45.097Z,1.40
2019-03-18T00:45:15.619Z,1.40
2019-03-18T00:47:44.440Z,1.12
2019-03-18T00:50:17.048Z,1.15
2019-03-18T00:52:45.726Z,1.65
2019-03-18T00:55:14.413Z,1.50
2019-03-18T00:57:43.060Z,1.40
2019-03-18T01:00:19.341Z,1.70
2019-03-18T01:02:49.785Z,1.47
2019-03-18T01:05:18.655Z,1.52
2019-03-18T01:07:47.259Z,2.08
2019-03-18T01:10:18.788Z,1.80
2019-03-18T01:12:47.336Z,1.50
2019-03-18T01:15:27.481Z,2.25
2019-03-18T01:17:46.470Z,1.47
2019-03-18T01:20:15.328Z,1.50
2019-03-18T01:22:43.741Z,1.42
2019-03-18T01:25:12.343Z,1.42
2019-03-18T01:27:40.761Z,1.35
2019-03-18T01:30:13.844Z,1.22
2019-03-18T01:32:42.544Z,1.40
2019-03-18T01:35:11.228Z,1.25
2019-03-18T01:37:39.902Z,1.30
2019-03-18T01:40:13.248Z,1.40
2019-03-18T01:42:41.670Z,1.32
2019-03-18T01:45:11.816Z,1.30
2019-03-18T01:47:40.523Z,1.40
2019-03-18T01:50:13.834Z,1.22
2019-03-18T01:52:42.376Z,1.40
2019-03-18T01:55:10.956Z,1.00
2019-03-18T01:57:39.410Z,1.30
2019-03-18T02:00:13.213Z,1.40
2019-03-18T02:02:41.725Z,1.10
2019-03-18T02:05:11.200Z,1.10
2019-03-18T02:07:39.649Z,1.55
2019-03-18T02:10:17.250Z,1.35
2019-03-18T02:12:45.737Z,1.15
2019-03-18T02:15:15.236Z,0.93
2019-03-18T02:17:43.717Z,1.25
2019-03-18T02:20:14.228Z,1.10
2019-03-18T02:22:42.675Z,1.20
2019-03-18T02:25:11.923Z,0.95
2019-03-18T02:27:40.423Z,1.25
2019-03-18T02:30:14.099Z,0.85
2019-03-18T02:32:44.055Z,1.00
2019-03-18T02:35:12.630Z,1.12
2019-03-18T02:37:41.061Z,1.00
2019-03-18T02:40:10.770Z,1.10
2019-03-18T02:42:39.255Z,1.10
2019-03-18T02:45:09.621Z,1.12
2019-03-18T02:47:38.070Z,1.00
2019-03-18T02:50:07.335Z,1.07
2019-03-18T02:52:36.083Z,0.90
2019-03-18T02:55:05.536Z,1.20
2019-03-18T02:57:33.937Z,1.02
2019-03-18T03:00:02.388Z,0.80
2019-03-18T03:02:30.799Z,0.78
2019-03-18T03:04:59.236Z,0.80
2019-03-18T03:07:27.726Z,0.85
2019-03-18T03:09:56.158Z,0.65
2019-03-18T03:12:24.651Z,1.15
2019-03-18T03:14:53.085Z,0.85
2019-03-18T03:17:22.078Z,1.00
2019-03-18T03:19:50.736Z,0.90
2019-03-18T03:22:19.170Z,1.15
2019-03-18T03:24:47.614Z,0.90
2019-03-18T03:27:16.053Z,0.98
2019-03-18T03:29:44.478Z,1.15
2019-03-18T03:32:12.891Z,1.10
2019-03-18T03:34:41.300Z,0.78
2019-03-18T03:37:09.722Z,1.20
2019-03-18T03:39:38.235Z,1.12
2019-03-18T03:42:06.714Z,1.40
2019-03-18T03:44:35.240Z,1.60
2019-03-18T03:47:03.724Z,1.80
2019-03-18T03:49:32.190Z,2.12
2019-03-18T03:52:00.578Z,2.00
2019-03-18T03:54:29.479Z,1.90
2019-03-18T03:56:58.295Z,1.70
2019-03-18T03:59:26.856Z,2.20
2019-03-18T04:01:55.358Z,2.20
2019-03-18T04:04:23.836Z,2.27
2019-03-18T04:06:52.614Z,2.87
2019-03-18T04:09:21.175Z,3.00
2019-03-18T04:11:49.608Z,2.92
2019-03-18T04:14:18.119Z,3.45
2019-03-18T04:17:00.720Z,2.05
2019-03-18T04:19:17.121Z,2.20
2019-03-18T04:21:45.516Z,1.60
2019-03-18T04:24:14.001Z,1.60
2019-03-18T04:26:42.764Z,1.70
2019-03-18T04:29:11.185Z,1.50
2019-03-18T04:31:39.613Z,1.50
2019-03-18T04:34:08.211Z,1.25
2019-03-18T04:36:36.651Z,1.55
2019-03-18T04:39:06.899Z,1.50
2019-03-18T04:41:35.380Z,1.30
2019-03-18T04:44:03.807Z,1.45
2019-03-18T04:46:32.267Z,1.20
2019-03-18T04:49:00.684Z,1.98
2019-03-18T04:51:29.096Z,1.92
2019-03-18T04:53:57.537Z,1.45
2019-03-18T04:56:25.946Z,1.80
2019-03-18T04:58:54.388Z,1.60
2019-03-18T05:01:22.809Z,1.90
2019-03-18T05:03:51.308Z,1.72
2019-03-18T05:06:19.735Z,2.02
2019-03-18T05:08:48.153Z,1.60
2019-03-18T05:11:16.595Z,1.50
2019-03-18T05:13:45.053Z,1.50
2019-03-18T05:16:13.610Z,1.70
2019-03-18T05:18:42.021Z,1.45
2019-03-18T05:21:10.455Z,2.20
2019-03-18T05:23:38.900Z,2.90
2019-03-18T05:26:07.368Z,2.25
2019-03-18T05:28:35.791Z,2.30
2019-03-18T05:31:04.303Z,2.65
2019-03-18T05:33:32.749Z,2.60
2019-03-18T05:36:01.188Z,2.70
2019-03-18T05:38:29.621Z,3.45
2019-03-18T05:40:58.072Z,2.52
2019-03-18T05:43:26.509Z,3.08
2019-03-18T05:45:54.956Z,2.47
2019-03-18T05:48:23.364Z,2.62
2019-03-18T05:50:51.876Z,2.33
2019-03-18T05:53:20.301Z,2.00
2019-03-18T05:55:48.786Z,1.82
2019-03-18T05:58:17.271Z,2.35
2019-03-18T06:00:45.771Z,2.00
2019-03-18T06:03:14.193Z,1.87
2019-03-18T06:05:42.732Z,1.72
2019-03-18T06:08:11.761Z,2.30
2019-03-18T06:10:40.703Z,2.25
2019-03-18T06:13:09.103Z,2.10
2019-03-18T06:15:37.524Z,5.50
2019-03-18T06:18:05.966Z,2.12
2019-03-18T06:20:34.391Z,2.45
2019-03-18T06:23:02.830Z,2.12
2019-03-18T06:25:31.275Z,3.80
2019-03-18T06:27:59.742Z,1.85
2019-03-18T06:30:28.188Z,5.75
2019-03-18T06:32:56.614Z,2.60
2019-03-18T06:35:25.072Z,4.60
2019-03-18T06:37:53.508Z,3.30
2019-03-18T06:40:21.917Z,6.60
2019-03-18T06:42:50.372Z,2.77
2019-03-18T06:45:18.795Z,3.15
2019-03-18T06:47:47.218Z,3.85
2019-03-18T06:50:15.699Z,4.30
2019-03-18T06:52:44.127Z,4.50
2019-03-18T06:55:12.826Z,2.60
2019-03-18T06:57:41.225Z,1.90
2019-03-18T07:00:17.416Z,1.92
2019-03-18T07:02:45.824Z,2.02
2019-03-18T07:05:14.568Z,1.40
2019-03-18T07:07:43.111Z,1.70
2019-03-18T07:10:13.450Z,1.55
2019-03-18T07:12:41.876Z,1.20
2019-03-18T07:15:13.362Z,0.90
2019-03-18T07:17:41.333Z,1.00
2019-03-18T07:20:14.312Z,0.90
2019-03-18T07:22:42.791Z,1.37
2019-03-18T07:25:11.321Z,1.20
2019-03-18T07:27:39.734Z,1.20
2019-03-18T07:30:13.600Z,1.30
2019-03-18T07:32:42.084Z,1.10
2019-03-18T07:35:10.578Z,0.80
2019-03-18T07:37:39.020Z,1.17
2019-03-18T07:40:12.357Z,1.37
2019-03-18T07:42:40.869Z,1.80
2019-03-18T07:45:11.331Z,1.20
2019-03-18T07:47:39.754Z,1.20
2019-03-18T07:50:13.227Z,1.10
2019-03-18T07:52:41.793Z,1.00
2019-03-18T07:55:10.288Z,1.00
2019-03-18T07:57:38.815Z,1.15
2019-03-18T08:00:13.069Z,1.32
2019-03-18T08:02:41.494Z,1.30
2019-03-18T08:05:10.880Z,2.72
2019-03-18T08:07:39.592Z,7.22
2019-03-18T08:10:12.828Z,7.67
2019-03-18T08:12:41.244Z,2.62
2019-03-18T08:15:11.089Z,4.80
2019-03-18T08:17:39.629Z,4.20
2019-03-18T08:20:12.745Z,7.87
2019-03-18T08:22:41.404Z,28.57
2019-03-18T08:25:10.806Z,8.13
2019-03-18T08:27:39.295Z,5.83
2019-03-18T08:30:19.007Z,7.00
2019-03-18T08:32:47.521Z,6.60
2019-03-18T08:35:16.002Z,3.40
2019-03-18T08:37:44.486Z,2.55
2019-03-18T08:40:13.381Z,5.10
2019-03-18T08:42:41.868Z,4.35
2019-03-18T08:45:12.708Z,7.45
2019-03-18T08:47:41.209Z,16.05
2019-03-18T08:50:12.389Z,7.62
2019-03-18T08:52:41.146Z,7.47
2019-03-18T08:55:11.313Z,9.40
2019-03-18T08:57:39.893Z,2.65
2019-03-18T09:00:16.055Z,2.55
2019-03-18T09:02:44.531Z,8.40
2019-03-18T09:05:13.186Z,2.85
2019-03-18T09:07:41.712Z,1.40
2019-03-18T09:10:16.858Z,1.50
2019-03-18T09:12:45.709Z,4.83
2019-03-18T09:15:14.572Z,1.52
2019-03-18T09:17:42.987Z,9.58
2019-03-18T09:20:13.959Z,1.92
2019-03-18T09:22:42.481Z,2.95
2019-03-18T09:25:12.205Z,2.00
2019-03-18T09:27:40.692Z,2.20
2019-03-18T09:30:12.659Z,2.30
2019-03-18T09:32:41.132Z,2.15
2019-03-18T09:35:09.999Z,2.65
2019-03-18T09:37:38.454Z,1.27
2019-03-18T09:40:12.804Z,1.00
2019-03-18T09:42:41.240Z,0.90
2019-03-18T09:45:12.239Z,1.47
2019-03-18T09:50:06.229Z,1.20
2019-03-18T09:52:34.694Z,0.90
2019-03-18T09:55:03.475Z,1.40
2019-03-18T09:57:31.889Z,1.20
2019-03-18T10:00:00.395Z,1.30
2019-03-18T10:02:28.743Z,1.60
2019-03-18T10:04:57.199Z,1.42
2019-03-18T10:07:25.704Z,0.80
2019-03-18T10:09:54.156Z,1.17
2019-03-18T10:12:22.647Z,1.00
2019-03-18T10:14:51.062Z,0.70
2019-03-18T10:17:19.515Z,1.05
2019-03-18T10:19:47.996Z,0.75
2019-03-18T10:22:16.525Z,1.50
2019-03-18T10:24:44.950Z,2.77
2019-03-18T10:27:13.410Z,1.55
2019-03-18T10:29:41.828Z,1.25
2019-03-18T10:32:10.286Z,2.30
2019-03-18T10:34:38.760Z,0.80
2019-03-18T10:37:07.260Z,0.70
2019-03-18T10:39:35.768Z,1.32
2019-03-18T10:42:04.333Z,0.98
2019-03-18T10:44:32.784Z,0.60
2019-03-18T10:47:01.311Z,0.60
2019-03-18T10:49:29.765Z,0.93
2019-03-18T10:51:58.300Z,1.10
2019-03-18T10:54:31.145Z,0.60
2019-03-18T10:56:56.991Z,0.90
2019-03-18T10:59:25.392Z,1.12
2019-03-18T11:01:53.832Z,0.90
2019-03-18T11:04:22.427Z,1.00
2019-03-18T11:06:50.962Z,0.78
2019-03-18T11:09:19.406Z,0.80
2019-03-18T11:11:47.905Z,0.90
2019-03-18T11:14:16.353Z,1.10
2019-03-18T11:16:44.784Z,0.80
2019-03-18T11:19:13.231Z,0.80
2019-03-18T11:21:41.660Z,1.50
2019-03-18T11:24:10.251Z,1.00
2019-03-18T11:26:38.675Z,1.10
2019-03-18T11:29:07.094Z,0.80
2019-03-18T11:31:35.560Z,1.35
2019-03-18T11:34:04.058Z,2.10
2019-03-18T11:36:32.480Z,5.87
2019-03-18T11:39:01.230Z,2.45
2019-03-18T11:41:30.721Z,2.42
2019-03-18T11:43:59.177Z,2.77
2019-03-18T11:46:27.708Z,1.90
2019-03-18T11:48:56.264Z,2.05
2019-03-18T11:51:24.863Z,1.80
2019-03-18T11:53:53.278Z,1.45
2019-03-18T11:56:21.738Z,1.00
2019-03-18T11:58:50.197Z,2.08
2019-03-18T12:01:18.608Z,1.30
2019-03-18T12:03:47.055Z,1.00
2019-03-18T12:06:15.475Z,1.25
2019-03-18T12:08:43.930Z,1.20
2019-03-18T12:11:12.395Z,1.00
2019-03-18T12:13:40.879Z,0.90
2019-03-18T12:16:09.323Z,0.80
2019-03-18T12:18:37.761Z,0.88
2019-03-18T12:21:06.333Z,0.70
2019-03-18T12:23:35.031Z,1.42
2019-03-18T12:26:03.482Z,0.90
2019-03-18T12:28:31.906Z,1.10
2019-03-18T12:31:00.350Z,0.93
2019-03-18T12:33:28.812Z,0.98
2019-03-18T12:35:57.326Z,0.90
2019-03-18T12:38:26.044Z,1.05
2019-03-18T12:40:54.540Z,1.40
2019-03-18T12:43:23.020Z,1.27
2019-03-18T12:45:51.443Z,1.10
2019-03-18T12:48:19.860Z,1.15
2019-03-18T12:50:55.612Z,1.20
2019-03-18T12:53:18.462Z,1.20
2019-03-18T12:55:46.975Z,1.15
2019-03-18T12:58:15.508Z,1.12
2019-03-18T13:00:44.072Z,0.85
2019-03-18T13:03:12.639Z,1.32
2019-03-18T13:05:41.183Z,1.10
2019-03-18T13:08:09.801Z,1.00
2019-03-18T13:10:38.305Z,0.82
2019-03-18T13:13:08.988Z,1.20
2019-03-18T13:15:37.437Z,1.30
2019-03-18T13:18:05.977Z,1.20
2019-03-18T13:20:34.387Z,2.00
2019-03-18T13:23:02.815Z,2.30
2019-03-18T13:25:31.343Z,2.70
2019-03-18T13:27:59.782Z,1.67
2019-03-18T13:30:28.245Z,1.07
2019-03-18T13:32:56.685Z,1.00
2019-03-18T13:35:25.103Z,1.90
2019-03-18T13:37:53.591Z,1.75
2019-03-18T13:40:22.190Z,2.33
2019-03-18T13:42:50.721Z,1.07
2019-03-18T13:45:23.047Z,1.60
2019-03-18T13:47:51.591Z,3.45
2019-03-18T13:50:22.044Z,5.35
2019-03-18T13:52:50.618Z,3.50
2019-03-18T13:55:19.193Z,5.20
2019-03-18T13:57:47.632Z,2.10
2019-03-18T14:00:17.457Z,1.25
2019-03-18T14:02:46.061Z,2.92
2019-03-18T14:05:14.625Z,1.77
2019-03-18T14:07:43.322Z,2.02
2019-03-18T14:10:17.022Z,3.08
2019-03-18T14:12:45.620Z,3.40
2019-03-18T14:15:26.341Z,3.00
2019-03-18T14:17:54.911Z,2.12
2019-03-18T14:20:25.372Z,2.55
2019-03-18T14:22:54.134Z,1.90
2019-03-18T14:25:22.693Z,1.50
2019-03-18T14:27:51.232Z,2.02
2019-03-18T14:30:20.911Z,2.30
2019-03-18T14:32:49.494Z,2.20
2019-03-18T14:35:21.661Z,2.80
2019-03-18T14:37:48.233Z,2.35
2019-03-18T14:40:21.681Z,1.50
2019-03-18T14:42:50.195Z,2.22
2019-03-18T14:45:22.955Z,2.87
2019-03-18T14:47:51.496Z,1.62
2019-03-18T14:50:20.547Z,1.90
2019-03-18T14:52:49.069Z,2.40
2019-03-18T14:55:18.587Z,1.37
2019-03-18T14:57:47.280Z,1.82
2019-03-18T15:00:26.433Z,1.50
2019-03-18T15:02:54.983Z,1.50
2019-03-18T15:05:23.571Z,1.00
2019-03-18T15:07:52.145Z,1.70
2019-03-18T15:10:26.289Z,1.50
2019-03-18T15:12:54.872Z,1.92
2019-03-18T15:15:23.414Z,3.50
2019-03-18T15:17:51.865Z,3.25
2019-03-18T15:20:28.022Z,1.87
2019-03-18T15:22:56.638Z,2.20
2019-03-18T15:25:27.435Z,2.42
2019-03-18T15:27:55.952Z,3.70
2019-03-18T15:30:24.392Z,4.62
2019-03-18T15:32:52.894Z,3.72
2019-03-18T15:35:21.440Z,2.80
2019-03-18T15:37:49.955Z,2.30
2019-03-18T15:40:19.847Z,5.25
2019-03-18T15:42:48.379Z,3.10
2019-03-18T15:45:18.344Z,2.60
2019-03-18T15:47:46.876Z,4.87
2019-03-18T15:50:17.722Z,2.15
2019-03-18T15:52:46.189Z,2.42
2019-03-18T15:55:14.764Z,2.00
2019-03-18T15:57:43.406Z,4.03
2019-03-18T16:00:17.924Z,2.62
2019-03-18T16:02:46.424Z,2.02
2019-03-18T16:05:15.006Z,1.65
2019-03-18T16:07:43.693Z,1.40
2019-03-18T16:10:14.603Z,1.90
2019-03-18T16:12:43.213Z,2.20
2019-03-18T16:15:14.039Z,1.90
2019-03-18T16:17:42.508Z,1.40
2019-03-18T16:20:13.924Z,1.60
2019-03-18T16:22:42.417Z,1.50
2019-03-18T16:25:11.318Z,2.00
2019-03-18T16:27:39.901Z,1.60
2019-03-18T16:30:11.403Z,1.67
2019-03-18T16:32:39.880Z,1.40
2019-03-18T16:35:10.242Z,1.02
2019-03-18T16:37:38.787Z,1.10
2019-03-18T16:40:18.082Z,1.20
2019-03-18T16:42:46.519Z,1.30
2019-03-18T16:45:18.913Z,1.72
2019-03-18T16:47:47.934Z,3.00
2019-03-18T16:50:24.985Z,2.37
2019-03-18T16:52:53.609Z,1.55
2019-03-18T16:55:22.120Z,1.82
2019-03-18T16:57:50.597Z,1.60
2019-03-18T17:00:20.911Z,1.60
2019-03-18T17:02:49.430Z,1.42
2019-03-18T17:05:17.982Z,1.50
2019-03-18T17:07:46.583Z,1.70
2019-03-18T17:10:15.985Z,1.70
2019-03-18T17:12:44.580Z,1.42
2019-03-18T17:15:14.669Z,2.40
2019-03-18T17:17:43.193Z,4.67
2019-03-18T17:20:13.552Z,5.12
2019-03-18T17:22:48.880Z,5.72
2019-03-18T17:25:15.471Z,8.88
2019-03-18T17:27:43.961Z,11.28
2019-03-18T17:30:17.221Z,34.58
2019-03-18T17:32:45.740Z,14.47
2019-03-18T17:35:14.342Z,14.68
2019-03-18T17:37:42.925Z,13.30
2019-03-18T17:40:13.766Z,12.45
2019-03-18T17:42:42.298Z,3.75
2019-03-18T17:45:17.697Z,4.70
2019-03-18T17:47:46.245Z,5.10
2019-03-18T17:50:26.726Z,4.42
2019-03-18T17:53:02.392Z,4.00
2019-03-18T17:55:25.547Z,3.83
2019-03-18T17:57:54.115Z,2.58
2019-03-18T18:00:24.273Z,3.60
2019-03-18T18:02:53.090Z,3.30
2019-03-18T18:05:21.764Z,3.58
2019-03-18T18:07:50.261Z,3.30
2019-03-18T18:10:18.697Z,3.25
2019-03-18T18:12:47.127Z,2.67
2019-03-18T18:15:15.643Z,4.25
2019-03-18T18:17:44.133Z,3.45
2019-03-18T18:20:14.272Z,3.40
2019-03-18T18:22:42.849Z,3.35
2019-03-18T18:25:12.716Z,2.95
2019-03-18T18:27:41.152Z,3.12
2019-03-18T18:30:17.641Z,3.30
2019-03-18T18:32:46.214Z,3.62
2019-03-18T18:35:14.781Z,3.50
2019-03-18T18:37:43.238Z,3.80
2019-03-18T18:40:26.172Z,3.08
2019-03-18T18:42:54.711Z,2.58
2019-03-18T18:45:23.242Z,3.00
2019-03-18T18:47:51.681Z,2.98
2019-03-18T18:50:20.215Z,3.08
2019-03-18T18:52:48.714Z,2.83
2019-03-18T18:55:17.155Z,3.90
2019-03-18T18:57:45.593Z,6.95
2019-03-18T19:00:17.073Z,10.45
2019-03-18T19:02:45.685Z,10.72
2019-03-18T19:05:15.178Z,6.55
2019-03-18T19:07:44.174Z,6.53
2019-03-18T19:10:19.331Z,8.70
2019-03-18T19:12:47.751Z,9.73
2019-03-18T19:15:31.300Z,9.80
2019-03-18T19:17:59.781Z,7.00
2019-03-18T19:20:28.353Z,7.92
2019-03-18T19:22:56.776Z,6.33
2019-03-18T19:25:25.328Z,7.53
2019-03-18T19:27:53.879Z,7.22
2019-03-18T19:30:23.283Z,6.62
2019-03-18T19:32:51.849Z,6.37
2019-03-18T19:35:20.272Z,5.95
2019-03-18T19:37:48.795Z,5.50
2019-03-18T19:40:22.316Z,5.12
2019-03-18T19:42:50.814Z,5.45
2019-03-18T19:45:19.348Z,5.58
2019-03-18T19:47:47.859Z,5.72
2019-03-18T19:50:18.792Z,4.47
2019-03-18T19:52:47.276Z,4.67
2019-03-18T19:55:15.907Z,7.20
2019-03-18T19:57:44.418Z,8.33
2019-03-18T20:00:18.724Z,8.90
2019-03-18T20:02:47.180Z,7.75
2019-03-18T20:05:18.644Z,5.45
2019-03-18T20:07:45.956Z,5.70
2019-03-18T20:10:15.964Z,5.12
2019-03-18T20:12:46.102Z,4.50
2019-03-18T20:15:16.066Z,4.28
2019-03-18T20:17:44.741Z,5.42
2019-03-18T20:20:18.408Z,6.08
2019-03-18T20:22:46.910Z,5.65
2019-03-18T20:25:15.505Z,5.80
2019-03-18T20:27:44.312Z,4.58
2019-03-18T20:30:15.803Z,5.92
2019-03-18T20:32:44.626Z,5.42
2019-03-18T20:35:18.423Z,6.47
2019-03-18T20:37:46.913Z,4.45
2019-03-18T20:40:16.397Z,6.10
2019-03-18T20:42:45.372Z,5.62
2019-03-18T20:45:16.215Z,4.50
2019-03-18T20:47:44.816Z,4.30
2019-03-18T20:50:15.634Z,3.83
2019-03-18T20:52:44.266Z,4.22
2019-03-18T20:55:13.730Z,4.60
2019-03-18T20:57:42.193Z,5.35
2019-03-18T21:00:16.058Z,5.92
2019-03-18T21:02:44.558Z,5.95
2019-03-18T21:05:13.166Z,7.00
2019-03-18T21:07:41.753Z,6.03
2019-03-18T21:10:15.258Z,5.20
2019-03-18T21:12:43.861Z,6.05
2019-03-18T21:15:13.475Z,5.92
2019-03-18T21:17:42.034Z,5.42
2019-03-18T21:20:17.446Z,7.45
2019-03-18T21:22:45.933Z,7.25
2019-03-18T21:25:14.503Z,7.83
2019-03-18T21:27:42.973Z,7.05
2019-03-18T21:30:19.736Z,7.00
2019-03-18T21:32:48.354Z,8.23
2019-03-18T21:35:16.943Z,7.45
2019-03-18T21:37:45.447Z,6.05
2019-03-18T21:40:18.631Z,6.53
2019-03-18T21:42:47.155Z,6.08
2019-03-18T21:45:19.892Z,6.75
2019-03-18T21:47:48.443Z,7.10
2019-03-18T21:50:17.412Z,5.83
2019-03-18T21:52:46.022Z,6.10
2019-03-18T21:55:16.345Z,6.45
2019-03-18T21:57:44.909Z,7.45
2019-03-18T22:00:18.491Z,6.17
2019-03-18T22:02:47.025Z,9.65
2019-03-18T22:05:15.694Z,7.05
2019-03-18T22:07:44.224Z,7.50
2019-03-18T22:10:15.070Z,19.02
2019-03-18T22:12:43.516Z,11.97
2019-03-18T22:15:13.596Z,10.63
2019-03-18T22:17:42.168Z,7.90
2019-03-18T22:20:15.467Z,12.33
2019-03-18T22:22:44.402Z,11.95
2019-03-18T22:25:13.761Z,8.98
2019-03-18T22:27:42.340Z,8.60
2019-03-18T22:30:18.310Z,9.90
2019-03-18T22:32:47.097Z,10.85
2019-03-18T22:35:16.357Z,10.95
2019-03-18T22:37:44.871Z,9.95
2019-03-18T22:40:15.960Z,6.85
2019-03-18T22:42:44.493Z,6.70
2019-03-18T22:45:14.230Z,7.33
2019-03-18T22:47:42.657Z,16.02
2019-03-18T22:50:13.221Z,20.10
2019-03-18T22:52:41.768Z,20.15
2019-03-18T22:55:14.461Z,20.97
2019-03-18T22:57:43.062Z,11.50
2019-03-18T23:00:26.900Z,8.58
2019-03-18T23:02:55.425Z,7.20
2019-03-18T23:05:24.003Z,5.53
2019-03-18T23:07:52.527Z,6.55
2019-03-18T23:10:21.040Z,7.05
2019-03-18T23:12:49.527Z,5.37
2019-03-18T23:15:18.004Z,6.67
2019-03-18T23:17:46.493Z,5.92
2019-03-18T23:20:15.090Z,5.95
2019-03-18T23:22:43.501Z,7.35
2019-03-18T23:25:12.074Z,9.10
2019-03-18T23:27:40.524Z,11.22
2019-03-18T23:30:16.276Z,8.10
2019-03-18T23:32:44.803Z,7.42
2019-03-18T23:35:13.319Z,6.80
2019-03-18T23:37:41.899Z,6.33
2019-03-18T23:40:12.551Z,5.95
2019-03-18T23:42:40.971Z,6.35
2019-03-18T23:45:10.760Z,6.60
2019-03-18T23:47:39.306Z,6.92
2019-03-18T23:50:10.863Z,7.15
2019-03-18T23:52:39.238Z,6.67
2019-03-18T23:55:18.412Z,5.80
2019-03-18T23:57:39.500Z,5.83
